Aviation Digital Data Service (ADDS)

Output produced by METARs form (1137 UTC 19 January 2019)
found at http://www.aviationweather.gov/metar/data/
 
KXLL 191115Z AUTO 04004KT 10SM BKN039 BKN047 00/M01 A3018 RMK AO2
KABE 191051Z 00000KT 9SM OVC041 00/M03 A3019 RMK AO2 SLP227 T00001028
KABE 191123Z 1912/2012 VRB04KT P6SM BKN050 
     FM191900 10007KT 3SM -SN OVC015 
     FM200300 07010KT 1SM -FZRAPL OVC008 
     FM200700 08010KT 1SM FZRA BR OVC006 WS020/19045KT
       
KAOO 191053Z AUTO 00000KT 7SM OVC029 M01/M03 A3010 RMK AO2 SLP208 T10061033
KAOO 190920Z 1909/2006 03004KT P6SM OVC030 
     FM191500 09006KT 5SM -SN BR OVC015 
     FM191700 11006KT 1SM -SN BR OVC009 
     FM191900 12009KT 1/2SM SN FG OVC003 
     FM200200 12010KT 1/2SM SNPL FG OVC004
       
KBVI 191126Z 1912/2012 04005KT P6SM OVC025 
     FM191500 08008KT 5SM -SN OVC015 
     FM191800 07010KT 3/4SM -SN OVC005 
     FM200500 34013G25KT 1SM -SN OVC008 AMD NOT SKED
       
KHMZ 191135Z AUTO 00000KT 7SM OVC031 M01/M02 A3010 RMK AO2 T10091021
KBFD 191053Z AUTO 07003KT 1 1/2SM -SN BR OVC019 M07/M08 A3007 RMK AO2 SLP207 P0002 T10671083
KBFD 190919Z 1909/2006 07004KT 2SM -SN BR SCT015 OVC025 
     TEMPO 1910/1912 P6SM NSW OVC015 
     FM191200 08008KT 2SM -SN BR OVC010 
     FM191500 10011KT 1SM -SN BR OVC004 
     FM192000 10012KT 1/2SM SN FG OVC003
       
KBTP 191136Z AUTO 03005KT 8SM FEW022 SCT120 M02/M04 A3010 RMK AO2 FZRANO
KFIG 191111Z AUTO 06007KT 8SM FEW011 SCT025 M02/M03 A3007 RMK AO2 T10221033
KMQS 191115Z AUTO 08007KT 10SM OVC042 00/M04 A3017 RMK AO2
KDYL 191054Z AUTO 04004KT 10SM BKN043 M01/M04 A3018 RMK AO2 SLP229 T10061044
KDUJ 191053Z AUTO 08004KT 6SM BR OVC019 M03/M05 A3004 RMK AO2 SLP194 T10331050
KDUJ 191133Z 1912/2012 08004KT 6SM BR OVC019 
     FM191300 05005KT P6SM -SN OVC015 
     FM191700 09010KT 2SM -SN OVC008 
     FM192000 10009KT 1/2SM SN OVC003 
     FM200500 04012KT 3/4SM -SN OVC005 
     FM201000 32012KT 2SM -SN OVC012
       
KERI 191117Z 06008KT 1 1/4SM -SN BR OVC017 M04/M07 A3018 RMK AO2 P0001 T10441067
KERI 190909Z 1909/2006 08008KT 5SM -SN OVC025 
     TEMPO 1909/1911 2SM -SN OVC018 
     FM191400 07012G20KT P6SM OVC015 
     FM191700 06015G25KT 3/4SM -SN OVC008 
     FM192200 06017G27KT 1/2SM SN BLSN OVC006 
     FM200400 04020G30KT 1SM -SN BLSN OVC008
       
KFKL 191056Z AUTO 04005KT 10SM FEW010 OVC028 M04/M06 A3010 RMK AO2 SLP212 T10441061 FZRANO
KFKL 191134Z 1912/2012 04005KT P6SM FEW010 OVC028 
     FM191300 05005KT 4SM -SN OVC006 
     FM191600 09010KT 1SM -SN OVC004 
     FM191900 10009KT 1/2SM SN OVC003 
     FM200500 03012KT 3/4SM -SN OVC005 
     FM200900 32012KT 2SM -SN OVC012
       
KCXY 191056Z AUTO 00000KT 10SM OVC044 01/M02 A3018 RMK AO2 SLP223 T00061017
KMDT 191056Z 00000KT 6SM BR OVC044 01/M01 A3017 RMK AO2 SLP220 T00061011
KMDT 190921Z 1909/2006 VRB03KT 6SM BR OVC040 
     FM191500 10003KT 5SM BR VCSH OVC030 
     FM191800 12005KT 2SM -SN BR OVC015 
     FM192100 11006KT 1/2SM SN FG OVC007 
     FM200000 10008KT 1/2SM SNPL FG OVC003 
     FM200400 07008KT 3/4SM FZRAPL BR OVC003
       
KHZL 191135Z AUTO 00000KT 10SM OVC029 A3014 RMK AO2
KIDI 191135Z AUTO 11004KT 9SM OVC028 M01/M03 A3011 RMK A01
KJST 191101Z AUTO 10005KT 5SM BR OVC020 M03/M04 A3001 RMK AO2 T10281044
KJST 190920Z 1909/2006 VRB03KT 6SM BR OVC012 
     FM191200 11005KT 5SM BR OVC009 
     FM191400 10010KT 2SM -SN BR OVC007 
     FM191800 13010G17KT 1/2SM SN FG OVC003 
     FM200000 13012G18KT 1/2SM SNPL FG OVC004
       
KLNS 191053Z 12003KT 3SM BR OVC046 00/M01 A3016 RMK AO2 SLP218 T00001011
KLNS 190922Z 1909/2006 VRB03KT 3SM BR OVC040 
     FM191500 10003KT 5SM BR VCSH OVC030 
     FM191800 12005KT 2SM -SN BR OVC015 
     FM192100 11006KT 1/2SM SN FG OVC007 
     FM200000 10008KT 1/2SM SNPL FG OVC003 
     FM200300 09008KT 3/4SM FZRAPL BR OVC003 
     FM200500 08009KT 3/4SM RA BR OVC003
       
KLBE 191055Z AUTO VRB03KT OVC029 M00/M01 A3008 RMK AO2
KLBE 191126Z 1912/2012 04005KT P6SM BKN035 
     FM191600 08008KT 5SM -SN OVC015 
     FM191900 07010KT 1SM -SN OVC008 
     FM192200 05010KT 2SM -SNRA OVC012 
     FM200500 34013G25KT 1SM -SN OVC010
       
K22N 191135Z AUTO 00000KT 10SM OVC039 M01/M01 A3019 RMK AO2
KGKJ 191111Z AUTO 04006KT 5SM -SN BR SCT023 OVC035 M05/M06 A3011 RMK AO2 P0000 T10501056 TSNO
KMPO 191053Z AUTO 00000KT 10SM OVC026 M03/M07 A3012 RMK AO2 SLP222 T10331067
KUCP 191056Z AUTO 05006KT 10SM OVC026 M02/M04 A3011 RMK AO2 SLP224 T10221039
KCKZ 191135Z AUTO 01003KT 9SM OVC042 M02/M02 A3017 RMK AO2
KPNE 191054Z AUTO 04005KT 10SM OVC048 01/M04 A3022 RMK AO2 SLP234 T00111044
KPNE 191123Z 1912/2012 05005KT P6SM BKN050 
     FM191900 10007KT P6SM OVC045 
     FM192100 09008KT 4SM -SN OVC015 
     FM200100 08010KT 1SM -SNRA OVC008 
     FM200600 11008KT 1SM +RA OVC007 WS020/20045KT
       
KPHL 191054Z 08004KT 10SM OVC050 01/M02 A3021 RMK AO2 SLP231 T00111022
KPHL 191123Z 1912/2018 33004KT P6SM BKN050 
     FM192000 08010KT 4SM -SN BR OVC015 
     FM200000 09009KT 2SM -SNRA OVC008 
     FM200300 07009KT 2SM +RA OVC008 
     FM200600 04004KT 2SM +RA OVC008 WS020/18040KT 
     FM201600 33015G26KT P6SM OVC008
       
KLOM 191115Z AUTO 00000KT 7SM OVC047 M01/M01 A3019 RMK AO1
KAGC 191053Z VRB03KT 7SM SCT033 M02/M03 A3005 RMK AO2 SLP193 T10171033
KAGC 191126Z 1912/2012 04005KT P6SM BKN035 
     FM191600 08008KT 5SM -SN OVC015 
     FM191800 07010KT 1SM -SN OVC008 
     FM192100 05010KT 2SM -SNRA OVC008 
     FM200500 34013G25KT 1SM -SN OVC010
       
KPIT 191051Z 06006KT 8SM OVC140 M02/M03 A3006 RMK AO2 SLP200 T10171033
KPIT 191126Z 1912/2018 07006KT P6SM BKN035 
     FM191500 08008KT 5SM -SN OVC015 
     FM191800 07010KT 1SM -SN OVC008 
     FM192200 05010KT 2SM -SNRA OVC008 
     FM200500 34013G25KT 1SM -SN OVC010 
     FM201000 32014KT 6SM -SN OVC012 
     FM201200 33013G24KT P6SM OVC020
       
KPTW 191054Z AUTO 07004KT 6SM HZ OVC047 M01/M03 A3019 RMK AO2 SLP222 T10061033 TSNO
KUKT 191135Z AUTO 00000KT 7SM OVC043 M01/M02 A3017 RMK A01
KRDG 191054Z 00000KT 10SM OVC047 01/M02 A3016 RMK AO2 SLP220 T00061017
KRDG 191123Z 1912/2012 VRB03KT P6SM OVC050 
     FM191900 11006KT 3SM -SN OVC015 
     FM200300 08010KT 1SM FZRAPL OVC008 
     FM200700 08010KT 1SM FZRA BR OVC006 WS020/19045KT
       
KRVL 191115Z AUTO 00000KT 9SM -UP OVC037 M00/M01 A3013 RMK AO2
KOYM 191115Z AUTO 04003KT 10SM OVC018 M04/M05 A3009 RMK AO2
KSEG 191053Z AUTO 03003KT 10SM OVC045 M01/M03 A3016 RMK AO2 SLP217 T10061028
K2G9 191115Z AUTO 12005KT 10SM OVC018 M02/M03 A3003 RMK AO2
KUNV 191053Z 05003KT 10SM SCT039 M02/M03 A3011
KUNV 190921Z 1909/2006 VRB03KT P6SM OVC030 
     FM191600 07006KT 5SM -SN BKN015 OVC025 
     FM191800 11006KT 1SM -SN BR OVC012 
     FM192000 11005KT 1/2SM SN OVC003 
     FM200300 12010KT 1/2SM SNPL FG OVC004
       
KAFJ 191056Z AUTO 05005KT 5SM BR OVC008 M01/M02 A3008 RMK AO2 SLP199 T10111022 FZRANO
KN38 191115Z AUTO 04005KT 10SM OVC016 M05/M07 A3009 RMK AO2
KOQN 191135Z AUTO 00000KT 10SM OVC046 00/M02 A3018 RMK AO2
KAVP 191054Z 00000KT 10SM OVC035 M01/M07 A3017 RMK AO2 SLP223 T10111067
KAVP 190937Z 1910/2006 VRB03KT P6SM BKN035 
     FM191700 VRB04KT P6SM -SN OVC030 
     FM192000 11005KT 2SM -SN OVC025 
     FM192200 11006KT 1/2SM SN OVC015 
     FM200300 08008KT 1/4SM +SN OVC008
       
KIPT 191054Z AUTO 00000KT 10SM OVC041 M01/M03 A3015 RMK AO2 SLP216 T10111033
KIPT 190921Z 1909/2006 VRB03KT P6SM OVC040 
     FM191700 06005KT 5SM -SN BR OVC025 
     FM191900 09006KT 1SM -SN BR OVC012 
     FM192200 09010G17KT 1/2SM SN FG OVC003
       
KTHV 191053Z AUTO 00000KT 5SM BR OVC043 00/M01 A3016 RMK AO2 SLP220 T00001006